Stump Creek, Pennsylvania
Current Conditions -  °F | °C
As of 9:53 AM on Saturday 25 Oct 2014 (Local Time) from KDUJ Reporting Station
Few Clouds Few Clouds  
Wind Chill: 50°   Ceiling: Unl
Heat Index: 50°   Visibility: 10mi
Dew Point: 41°   Wind: 8mph
Humidity: 71%   Direction: 240°WSW
Pressure: 29.89"   Gusts: NA
Location:  41.01°N, 78.84°W
Report Text: KDUJ 251353Z AUTO 24007KT 10SM FEW038 10/05 A2989 RMK AO2 SLP126 T01000050 $
Loading
Personal Weather Stations






























Interactive Weather Map
Tropical Storm Tracking
New forecast layout! Learn more

10-Day Weather Forecast

Advertisements
Track Severe Weather on mobile